Time;durP1;ratioP1;P1;durP2;ratioP2;P2;SDS_P1;SDS_P2;PMS_P1;PMS_P2;Temp;Humidity;BMP_temperature;BMP_pressure;BME280_temperature;BME280_humidity;BME280_pressure;Samples;Min_cycle;Max_cycle;Signal;HPM_P1;HPM_P2
2022/07/08 00:01:30;;;;;;;4.40;3.45;;;;;;;20.70;50.10;93875.66;5011234;28;20629;-83
2022/07/08 00:03:56;;;;;;;4.75;3.30;;;;;;;20.70;50.44;93879.13;5009499;28;20041;-84
2022/07/08 00:06:21;;;;;;;3.75;3.30;;;;;;;20.58;50.50;93871.34;5010425;28;20032;-83
2022/07/08 00:08:46;;;;;;;3.65;3.28;;;;;;;20.36;50.69;93837.97;5010341;28;20038;-84
2022/07/08 00:11:12;;;;;;;4.63;3.50;;;;;;;20.45;50.82;93851.16;5010538;28;20052;-81
2022/07/08 00:13:38;;;;;;;4.13;3.25;;;;;;;20.41;51.35;93848.44;5009088;28;20076;-82
2022/07/08 00:16:03;;;;;;;4.07;3.20;;;;;;;20.40;50.89;93830.66;5012856;28;20091;-83
2022/07/08 00:18:29;;;;;;;3.45;3.15;;;;;;;20.33;51.10;93827.94;5007317;28;20270;-83
2022/07/08 00:20:54;;;;;;;5.55;3.38;;;;;;;20.34;51.53;93851.06;5007818;28;20873;-84
2022/07/08 00:23:20;;;;;;;3.65;3.17;;;;;;;20.30;51.37;93839.47;5008883;28;20108;-84
2022/07/08 00:25:45;;;;;;;3.97;3.30;;;;;;;20.24;51.81;93854.44;5024795;28;20013;-84
2022/07/08 00:28:10;;;;;;;3.25;2.78;;;;;;;20.35;51.43;93858.03;5016521;28;20034;-83
2022/07/08 00:30:36;;;;;;;3.80;2.88;;;;;;;20.19;51.39;93822.38;5016387;28;20409;-84
2022/07/08 00:33:01;;;;;;;3.45;3.15;;;;;;;20.55;51.32;93856.63;5010290;28;20038;-83
2022/07/08 00:35:27;;;;;;;7.93;3.65;;;;;;;20.35;51.15;93814.81;5011168;28;20041;-84
2022/07/08 00:37:53;;;;;;;3.65;3.20;;;;;;;20.65;50.84;93857.88;5010740;28;20409;-82
2022/07/08 00:40:19;;;;;;;3.95;3.53;;;;;;;20.17;50.63;93782.28;5010797;28;20048;-83
2022/07/08 00:42:48;;;;;;;3.85;2.80;;;;;;;20.57;50.58;93843.53;5009954;28;20034;-84
2022/07/08 00:45:17;;;;;;;3.50;3.20;;;;;;;20.55;50.99;93847.75;5009771;28;20029;-83
2022/07/08 00:47:43;;;;;;;2.88;2.58;;;;;;;20.49;51.52;93852.72;5011333;28;20041;-84
2022/07/08 00:50:09;;;;;;;3.70;2.97;;;;;;;20.50;51.51;93858.91;5010735;28;20025;-81
2022/07/08 00:52:37;;;;;;;3.45;2.80;;;;;;;20.38;51.86;93861.91;5012004;28;20033;-85
2022/07/08 00:55:03;;;;;;;4.05;3.40;;;;;;;20.15;52.70;93843.16;5008044;28;20040;-79
2022/07/08 00:57:28;;;;;;;3.10;2.60;;;;;;;20.06;52.41;93829.97;5011043;28;20069;-84
2022/07/08 00:59:54;;;;;;;2.90;2.60;;;;;;;19.90;51.92;93788.94;5009670;28;20041;-83
2022/07/08 01:02:20;;;;;;;3.60;3.05;;;;;;;20.35;51.84;93847.22;5023217;28;20025;-84
2022/07/08 01:04:45;;;;;;;2.85;2.53;;;;;;;20.41;51.74;93845.72;5011128;28;20037;-84
2022/07/08 01:07:11;;;;;;;3.88;2.42;;;;;;;20.52;51.40;93859.31;5010563;28;20041;-82
2022/07/08 01:09:36;;;;;;;3.85;3.08;;;;;;;20.62;51.34;93858.63;5010578;28;20041;-84
2022/07/08 01:12:04;;;;;;;3.22;2.92;;;;;;;20.65;50.95;93860.56;5009417;28;20030;-84
2022/07/08 01:14:29;;;;;;;2.72;2.53;;;;;;;20.48;51.21;93828.81;5009412;28;20042;-82
2022/07/08 01:16:55;;;;;;;3.53;2.72;;;;;;;20.30;50.70;93798.94;5013194;28;20477;-84
2022/07/08 01:19:21;;;;;;;3.55;3.25;;;;;;;20.35;50.47;93793.19;5010817;28;20061;-83
2022/07/08 01:21:46;;;;;;;5.55;2.58;;;;;;;20.56;50.67;93846.63;5007417;28;20577;-83
2022/07/08 01:24:12;;;;;;;3.15;2.47;;;;;;;20.65;50.55;93852.47;5009958;28;20052;-84
2022/07/08 01:26:37;;;;;;;3.33;2.78;;;;;;;20.48;50.52;93826.84;5010256;28;20040;-84
2022/07/08 01:29:02;;;;;;;3.63;2.75;;;;;;;20.59;50.70;93841.22;5009521;28;20044;-79
2022/07/08 01:31:28;;;;;;;3.95;2.35;;;;;;;20.27;50.46;93791.59;5011915;28;20021;-83
2022/07/08 01:33:54;;;;;;;4.60;2.85;;;;;;;20.41;50.47;93824.13;5010550;28;20029;-82
2022/07/08 01:36:19;;;;;;;3.00;2.70;;;;;;;20.17;50.32;93781.50;5010822;28;20156;-84
2022/07/08 01:38:44;;;;;;;3.67;2.80;;;;;;;20.45;50.21;93819.50;5010744;28;20065;-84
2022/07/08 01:41:10;;;;;;;3.40;2.92;;;;;;;20.37;50.69;93853.03;5009418;28;20036;-82
2022/07/08 01:43:35;;;;;;;3.55;3.20;;;;;;;20.34;50.64;93851.06;5024676;28;20429;-84
2022/07/08 01:46:00;;;;;;;2.60;2.40;;;;;;;20.42;50.81;93852.69;5010263;28;20037;-84
2022/07/08 01:48:26;;;;;;;6.22;3.20;;;;;;;20.30;50.54;93833.28;5009639;28;20037;-84
2022/07/08 01:50:51;;;;;;;3.13;2.83;;;;;;;20.44;50.32;93861.19;5010282;28;20492;-84
2022/07/08 01:53:17;;;;;;;2.70;2.50;;;;;;;20.32;50.92;93852.59;5010029;28;20014;-83
2022/07/08 01:55:42;;;;;;;2.58;2.33;;;;;;;20.32;50.82;93850.66;5010668;28;20060;-84
2022/07/08 01:58:08;;;;;;;3.63;3.00;;;;;;;20.08;51.23;93826.91;5003246;28;21062;-84
2022/07/08 02:00:33;;;;;;;3.78;3.35;;;;;;;20.18;51.20;93837.06;5010917;28;20064;-84
2022/07/08 02:02:59;;;;;;;3.20;2.90;;;;;;;20.16;50.82;93833.91;5010417;28;20056;-84
2022/07/08 02:05:26;;;;;;;3.33;2.72;;;;;;;20.29;50.81;93854.09;5009733;28;20136;-84
2022/07/08 02:07:51;;;;;;;3.50;3.20;;;;;;;20.12;50.47;93827.72;5010602;28;20049;-83
2022/07/08 02:10:17;;;;;;;5.82;3.83;;;;;;;20.25;50.65;93847.91;5014429;28;20049;-83
2022/07/08 02:12:42;;;;;;;4.45;3.30;;;;;;;20.11;50.67;93828.84;5009690;28;20613;-84
2022/07/08 02:15:08;;;;;;;4.03;2.60;;;;;;;20.10;50.68;93832.69;5022134;28;20462;-84
2022/07/08 02:17:36;;;;;;;3.20;2.90;;;;;;;20.09;50.62;93842.72;5009354;28;20042;-83
2022/07/08 02:20:07;;;;;;;2.90;2.70;;;;;;;20.07;50.93;93857.75;5007914;28;20033;-83
2022/07/08 02:22:32;;;;;;;4.15;2.55;;;;;;;19.78;50.86;93829.72;5008341;28;20025;-83
2022/07/08 02:24:58;;;;;;;4.07;2.40;;;;;;;19.98;51.35;93876.16;5007537;28;20092;-83
2022/07/08 02:27:24;;;;;;;3.25;2.95;;;;;;;19.94;51.21;93875.38;5010826;28;20603;-82
2022/07/08 02:29:50;;;;;;;3.53;3.22;;;;;;;19.89;51.28;93867.59;5009928;28;20604;-84
2022/07/08 02:32:15;;;;;;;3.90;3.50;;;;;;;19.62;51.53;93837.22;5007802;28;20030;-83
2022/07/08 02:34:41;;;;;;;3.50;3.15;;;;;;;19.82;51.57;93867.50;5011063;28;20029;-84
2022/07/08 02:37:06;;;;;;;3.92;3.05;;;;;;;19.77;51.82;93859.75;5008163;28;20046;-84
2022/07/08 02:39:32;;;;;;;3.75;3.35;;;;;;;19.63;51.79;93836.88;5009503;28;20042;-83
2022/07/08 02:41:57;;;;;;;5.85;4.20;;;;;;;19.81;51.65;93860.56;5008717;28;20498;-81
2022/07/08 02:44:23;;;;;;;5.03;3.33;;;;;;;19.75;51.70;93862.81;5006903;28;20079;-83
2022/07/08 02:46:48;;;;;;;4.63;3.28;;;;;;;19.87;51.67;93877.97;5008115;28;20702;-81
2022/07/08 02:49:14;;;;;;;2.95;2.65;;;;;;;19.85;51.43;93872.19;5010822;28;20106;-84
2022/07/08 02:51:40;;;;;;;4.82;3.35;;;;;;;19.86;51.54;93871.03;5014080;28;20527;-83
2022/07/08 02:54:06;;;;;;;3.05;2.50;;;;;;;19.45;51.04;93805.47;5008654;28;20069;-83
2022/07/08 02:56:32;;;;;;;3.10;2.67;;;;;;;19.69;51.38;93850.81;5009401;28;20041;-83
2022/07/08 02:58:58;;;;;;;3.80;3.00;;;;;;;19.80;51.31;93869.81;5010641;28;20028;-83
2022/07/08 03:01:23;;;;;;;3.47;3.17;;;;;;;19.56;51.33;93836.78;5008990;28;20030;-83
2022/07/08 03:03:49;;;;;;;3.88;3.22;;;;;;;19.72;51.57;93866.25;5009446;28;20994;-82
2022/07/08 03:06:14;;;;;;;3.70;3.30;;;;;;;19.73;51.45;93870.50;5008291;28;20043;-83
2022/07/08 03:08:40;;;;;;;4.68;3.38;;;;;;;19.53;51.75;93837.53;5014214;28;20144;-84
2022/07/08 03:11:06;;;;;;;3.70;3.00;;;;;;;19.60;51.76;93851.09;5009289;28;20042;-84
2022/07/08 03:13:31;;;;;;;3.92;3.55;;;;;;;19.75;51.72;93874.38;5012100;28;20523;-84
2022/07/08 03:15:57;;;;;;;4.97;4.40;;;;;;;19.75;51.95;93873.59;5014362;28;20064;-84
2022/07/08 03:18:23;;;;;;;4.10;3.70;;;;;;;19.62;52.30;93854.19;5010589;28;20037;-83
2022/07/08 03:20:49;;;;;;;4.68;4.18;;;;;;;19.58;52.38;93848.00;5012393;28;20479;-82
2022/07/08 03:23:14;;;;;;;6.00;3.53;;;;;;;19.58;52.50;93850.69;5012726;28;20021;-84
2022/07/08 03:25:40;;;;;;;3.88;3.47;;;;;;;18.72;52.85;93740.28;5017012;28;20025;-83
2022/07/08 03:28:05;;;;;;;5.93;4.18;;;;;;;19.57;52.71;93872.63;5011983;28;20696;-82
2022/07/08 03:30:31;;;;;;;4.75;3.60;;;;;;;19.56;52.94;93860.28;5027081;28;20045;-83
2022/07/08 03:32:56;;;;;;;6.35;4.38;;;;;;;19.46;52.85;93840.13;5011360;28;20040;-83
2022/07/08 03:35:22;;;;;;;5.85;4.32;;;;;;;19.58;52.93;93847.22;5007574;28;20214;-84
2022/07/08 03:37:48;;;;;;;7.10;4.63;;;;;;;19.68;53.08;93874.31;4990859;28;20524;-82
2022/07/08 03:42:58;;;;;;;4.10;3.70;;;;;;;19.66;53.46;93868.50;4993071;28;20399;-84
2022/07/08 03:45:23;;;;;;;6.18;4.03;;;;;;;19.42;53.41;93833.91;4992803;28;20034;-84
2022/07/08 03:47:49;;;;;;;5.22;4.72;;;;;;;19.56;53.24;93841.41;4992667;28;20529;-82
2022/07/08 03:50:15;;;;;;;6.07;4.60;;;;;;;19.63;53.42;93850.38;4991783;28;20049;-84
2022/07/08 03:52:40;;;;;;;6.75;5.18;;;;;;;19.94;53.41;93899.66;4991785;28;20566;-83
2022/07/08 03:55:07;;;;;;;5.95;5.05;;;;;;;19.98;53.26;93892.38;4990909;28;20671;-84
2022/07/08 03:57:32;;;;;;;4.90;4.50;;;;;;;19.85;52.99;93864.84;4993532;28;20033;-83
2022/07/08 03:59:58;;;;;;;7.13;5.18;;;;;;;20.06;52.85;93894.75;5005976;28;20498;-83
2022/07/08 04:02:24;;;;;;;7.47;5.32;;;;;;;19.89;53.09;93862.19;4991906;28;20403;-81
2022/07/08 04:04:50;;;;;;;6.75;5.03;;;;;;;19.83;53.14;93848.25;4990276;28;20053;-83
2022/07/08 04:07:16;;;;;;;6.18;5.07;;;;;;;20.08;53.70;93873.59;4993572;28;20045;-84
2022/07/08 04:09:41;;;;;;;5.97;5.20;;;;;;;19.78;53.71;93839.72;4990741;28;20442;-83
2022/07/08 04:12:07;;;;;;;6.18;5.13;;;;;;;19.75;53.75;93823.13;4992347;28;20034;-84
2022/07/08 04:14:33;;;;;;;7.13;5.95;;;;;;;20.18;53.43;93882.97;4990470;28;20034;-83
2022/07/08 04:16:58;;;;;;;5.95;5.35;;;;;;;20.26;53.46;93881.88;4992427;28;20063;-83
2022/07/08 04:19:23;;;;;;;6.45;5.47;;;;;;;19.98;53.02;93830.28;4990402;28;20044;-84
2022/07/08 04:21:49;;;;;;;6.00;4.82;;;;;;;20.09;53.41;93845.41;4989461;28;20058;-82
2022/07/08 04:24:14;;;;;;;8.18;6.25;;;;;;;19.89;53.57;93832.50;4990900;28;20356;-84
2022/07/08 04:26:40;;;;;;;14.52;6.72;;;;;;;19.92;53.55;93827.16;4993256;28;20037;-83
2022/07/08 04:29:05;;;;;;;8.73;6.63;;;;;;;20.09;54.03;93863.56;4990586;28;20127;-83
2022/07/08 04:31:31;;;;;;;7.55;6.72;;;;;;;19.95;54.13;93855.31;4991181;28;20026;-82
2022/07/08 04:33:56;;;;;;;8.43;5.95;;;;;;;19.94;54.09;93849.16;4990271;28;20190;-84
2022/07/08 04:36:22;;;;;;;9.07;6.20;;;;;;;20.06;54.14;93862.38;4991880;28;20050;-84
2022/07/08 04:38:48;;;;;;;10.68;7.10;;;;;;;20.27;53.42;93883.41;4989158;28;20038;-84
2022/07/08 04:41:13;;;;;;;9.52;6.03;;;;;;;20.41;53.36;93878.13;4990540;28;20451;-84
2022/07/08 04:43:39;;;;;;;9.55;6.60;;;;;;;20.53;53.35;93890.59;4991044;28;20081;-84
2022/07/08 04:46:04;;;;;;;8.88;6.65;;;;;;;20.14;53.41;93836.22;4989622;28;20123;-84
2022/07/08 04:48:30;;;;;;;7.38;6.60;;;;;;;20.46;52.80;93861.59;4989099;28;20156;-83
2022/07/08 04:50:56;;;;;;;8.45;7.03;;;;;;;20.53;52.57;93864.34;4992241;28;20134;-82
2022/07/08 04:53:22;;;;;;;8.35;7.15;;;;;;;20.82;52.13;93895.06;4989017;28;20041;-84
2022/07/08 04:55:49;;;;;;;6.75;6.00;;;;;;;20.90;52.03;93890.50;4993957;28;20409;-83
2022/07/08 04:58:14;;;;;;;10.13;7.50;;;;;;;20.40;52.06;93827.19;4991198;28;20476;-83
2022/07/08 05:00:40;;;;;;;11.13;7.40;;;;;;;20.59;52.29;93895.25;4989058;28;20041;-83
2022/07/08 05:03:05;;;;;;;8.40;6.40;;;;;;;20.56;51.98;93857.41;4990127;28;20859;-83
2022/07/08 05:05:31;;;;;;;11.52;8.55;;;;;;;20.45;52.16;93824.91;4988382;28;20034;-83
2022/07/08 05:07:57;;;;;;;9.65;7.93;;;;;;;21.03;51.90;93886.31;4990349;28;20103;-83
2022/07/08 05:10:24;;;;;;;8.48;7.32;;;;;;;20.99;51.38;93885.53;4996980;28;20336;-84
2022/07/08 05:12:50;;;;;;;11.00;7.55;;;;;;;21.04;51.16;93866.25;4990372;28;20041;-83
2022/07/08 05:15:17;;;;;;;9.45;7.18;;;;;;;20.84;51.24;93867.63;4991500;28;20065;-84
2022/07/08 05:17:42;;;;;;;9.05;7.10;;;;;;;21.12;51.39;93884.06;4989782;28;20062;-83
2022/07/08 05:20:09;;;;;;;10.00;7.25;;;;;;;21.25;51.21;93879.91;5002491;28;20117;-83
2022/07/08 05:22:36;;;;;;;8.10;6.75;;;;;;;21.25;51.62;93893.44;4993221;28;20022;-84
2022/07/08 05:25:06;;;;;;;9.45;6.90;;;;;;;21.02;51.07;93874.00;5004668;28;20034;-83
2022/07/08 05:27:31;;;;;;;11.52;7.93;;;;;;;21.28;51.66;93895.38;4991193;28;20065;-83
2022/07/08 05:29:57;;;;;;;11.10;6.40;;;;;;;21.39;50.92;93895.44;4989601;28;20506;-82
2022/07/08 05:32:22;;;;;;;8.70;7.43;;;;;;;21.13;50.53;93885.63;4991584;28;20618;-84
2022/07/08 05:34:48;;;;;;;7.75;6.00;;;;;;;21.19;51.37;93894.94;4990382;28;20060;-84
2022/07/08 05:37:14;;;;;;;10.45;7.57;;;;;;;21.21;51.35;93879.13;4990019;28;20034;-84
2022/07/08 05:39:40;;;;;;;7.82;7.07;;;;;;;20.98;51.19;93857.72;4989116;28;20066;-83
2022/07/08 05:42:10;;;;;;;10.38;6.95;;;;;;;21.29;50.99;93896.94;4989690;28;20597;-83
2022/07/08 05:44:37;;;;;;;10.43;6.57;;;;;;;21.16;50.69;93879.47;4990193;28;20038;-84
2022/07/08 05:47:04;;;;;;;9.05;8.00;;;;;;;21.41;50.90;93880.34;4996290;28;20040;-84
2022/07/08 05:49:30;;;;;;;10.38;7.05;;;;;;;21.39;50.64;93876.50;4990656;28;20034;-80
2022/07/08 05:51:55;;;;;;;13.10;7.50;;;;;;;21.16;51.17;93830.78;4993383;28;20417;-81
2022/07/08 05:54:21;;;;;;;9.52;7.82;;;;;;;21.69;50.63;93884.38;5007997;28;20042;-80
2022/07/08 05:56:46;;;;;;;11.40;7.65;;;;;;;21.76;50.49;93873.56;4994458;28;20052;-81
2022/07/08 05:59:12;;;;;;;13.50;7.47;;;;;;;21.70;50.75;93885.94;4990831;28;20018;-81
2022/07/08 06:01:37;;;;;;;9.10;7.45;;;;;;;21.35;51.27;93851.34;4995231;28;20018;-80
2022/07/08 06:04:03;;;;;;;11.60;7.20;;;;;;;21.69;51.12;93882.44;5007231;28;20158;-80
2022/07/08 06:06:28;;;;;;;19.77;7.95;;;;;;;21.72;50.40;93856.53;4993283;28;20129;-81
2022/07/08 06:08:54;;;;;;;8.98;7.35;;;;;;;21.68;50.73;93858.47;4994461;28;20900;-81
2022/07/08 06:11:19;;;;;;;8.65;7.63;;;;;;;21.97;49.95;93876.34;4994386;28;20025;-81
2022/07/08 06:13:44;;;;;;;13.05;6.95;;;;;;;21.43;50.39;93848.28;4994317;28;20454;-81
2022/07/08 06:16:10;;;;;;;9.07;7.65;;;;;;;21.53;50.09;93865.72;4994230;28;20570;-81
2022/07/08 06:18:35;;;;;;;10.07;7.57;;;;;;;21.59;49.57;93837.19;4992702;28;20037;-81
2022/07/08 06:21:01;;;;;;;10.90;8.30;;;;;;;21.80;49.25;93848.03;4992911;28;20034;-81
2022/07/08 06:23:26;;;;;;;8.68;7.28;;;;;;;22.06;48.87;93887.56;4989324;28;20095;-81
2022/07/08 06:25:51;;;;;;;9.20;7.13;;;;;;;21.98;49.15;93866.28;4995207;28;20033;-81
2022/07/08 06:28:17;;;;;;;8.90;7.78;;;;;;;21.55;49.61;93862.69;4996795;28;20092;-82
2022/07/08 06:30:42;;;;;;;9.95;7.28;;;;;;;21.64;50.09;93855.75;4996163;28;20478;-82
2022/07/08 06:33:08;;;;;;;9.38;7.32;;;;;;;21.74;50.06;93875.88;4994417;28;20386;-81
2022/07/08 06:35:34;;;;;;;12.13;7.93;;;;;;;21.98;49.19;93858.94;4994516;28;20030;-82
2022/07/08 06:37:59;;;;;;;10.32;7.82;;;;;;;22.18;49.27;93867.47;4992340;28;20025;-81
2022/07/08 06:40:25;;;;;;;9.68;7.82;;;;;;;22.30;48.48;93873.31;4993387;28;20566;-81
2022/07/08 06:42:51;;;;;;;13.50;8.30;;;;;;;22.22;48.32;93835.78;4993122;28;20038;-81
2022/07/08 06:45:16;;;;;;;9.93;7.50;;;;;;;22.54;48.89;93862.88;4992093;28;20398;-81
2022/07/08 06:47:43;;;;;;;9.63;7.68;;;;;;;22.46;47.82;93834.22;5000984;28;20049;-81
2022/07/08 06:50:09;;;;;;;9.23;7.35;;;;;;;22.45;48.05;93859.78;4992250;28;20030;-81
2022/07/08 06:52:35;;;;;;;7.78;6.57;;;;;;;21.94;48.90;93841.91;4998253;28;20026;-81
2022/07/08 06:55:01;;;;;;;8.60;6.82;;;;;;;22.16;49.19;93805.56;4994471;28;20065;-81
2022/07/08 06:57:28;;;;;;;8.43;7.45;;;;;;;22.56;48.05;93833.44;4999453;28;20042;-80
2022/07/08 06:59:56;;;;;;;8.07;6.32;;;;;;;22.58;48.07;93817.59;4995811;28;20068;-81
2022/07/08 07:02:22;;;;;;;9.52;6.20;;;;;;;22.71;48.28;93838.47;4997068;28;20121;-82
2022/07/08 07:04:48;;;;;;;16.25;7.32;;;;;;;22.32;49.17;93823.41;4997697;28;20028;-81
2022/07/08 07:07:13;;;;;;;7.78;6.05;;;;;;;22.35;48.56;93796.28;4994348;28;20049;-81
2022/07/08 07:09:39;;;;;;;10.88;5.93;;;;;;;22.57;48.59;93821.47;4995762;28;20163;-81
2022/07/08 07:12:09;;;;;;;6.95;6.25;;;;;;;22.82;47.36;93816.78;4994921;28;20031;-81
2022/07/08 07:14:35;;;;;;;5.63;4.38;;;;;;;22.72;45.97;93796.66;4991422;28;20137;-81
2022/07/08 07:17:00;;;;;;;60.00;30.23;;;;;;;22.84;45.50;93800.88;4996099;28;20471;-82
2022/07/08 07:19:27;;;;;;;18.33;7.93;;;;;;;22.91;45.41;93781.16;4994849;28;20825;-81
2022/07/08 07:21:52;;;;;;;29.42;15.68;;;;;;;23.13;46.49;93813.22;4994944;28;20097;-81
2022/07/08 07:24:18;;;;;;;11.57;6.38;;;;;;;23.20;45.97;93809.72;4998304;28;20031;-82
2022/07/08 07:26:43;;;;;;;4.93;3.58;;;;;;;23.34;44.08;93822.47;4998543;28;20405;-82
2022/07/08 07:29:09;;;;;;;4.40;3.28;;;;;;;23.19;45.56;93815.53;4998884;28;20037;-81
2022/07/08 07:31:36;;;;;;;7.78;3.92;;;;;;;23.00;45.39;93831.09;4997388;28;20041;-77
2022/07/08 07:34:03;;;;;;;5.30;4.10;;;;;;;23.11;46.23;93831.84;4994898;28;20638;-81
2022/07/08 07:36:31;;;;;;;4.70;4.30;;;;;;;23.21;46.04;93830.28;4987825;28;20037;-81
2022/07/08 07:38:58;;;;;;;3.92;3.53;;;;;;;23.26;46.23;93831.81;4993726;28;20046;-81
2022/07/08 07:41:24;;;;;;;4.18;3.40;;;;;;;22.94;47.02;93824.50;4990479;28;20065;-81
2022/07/08 07:43:51;;;;;;;4.72;4.32;;;;;;;23.14;44.77;93836.47;4990526;28;20286;-80
2022/07/08 07:46:16;;;;;;;5.78;3.53;;;;;;;23.03;44.84;93824.09;4989715;28;20124;-81
2022/07/08 07:48:42;;;;;;;5.97;3.78;;;;;;;22.64;44.88;93759.09;4993742;28;20046;-81
2022/07/08 07:51:08;;;;;;;3.63;3.28;;;;;;;22.94;45.91;93810.19;4992352;28;20100;-81
2022/07/08 07:53:33;;;;;;;5.32;3.78;;;;;;;23.20;45.77;93823.28;4993675;28;20107;-81
2022/07/08 07:55:59;;;;;;;13.80;6.45;;;;;;;23.33;44.46;93837.97;4991786;28;20525;-81
2022/07/08 07:58:25;;;;;;;7.72;4.28;;;;;;;23.17;43.71;93817.88;4992458;28;20122;-81
2022/07/08 08:00:52;;;;;;;9.30;4.70;;;;;;;23.46;43.54;93830.19;4992212;28;20044;-81
2022/07/08 08:03:17;;;;;;;5.05;3.40;;;;;;;23.44;43.42;93811.56;4993158;28;20038;-81
2022/07/08 08:05:43;;;;;;;6.82;4.22;;;;;;;23.50;43.49;93822.81;4990495;28;20034;-81
2022/07/08 08:08:09;;;;;;;4.10;3.55;;;;;;;23.56;43.15;93829.41;4989136;28;20042;-81
2022/07/08 08:10:35;;;;;;;4.57;3.33;;;;;;;23.51;42.95;93816.22;4993978;28;20036;-81
2022/07/08 08:13:01;;;;;;;4.10;2.78;;;;;;;23.40;42.75;93832.53;4994337;28;20398;-83
2022/07/08 08:15:29;;;;;;;6.15;4.45;;;;;;;23.45;42.85;93834.84;5003023;28;20035;-82
2022/07/08 08:17:57;;;;;;;6.63;3.75;;;;;;;23.27;44.60;93817.06;5004091;28;20038;-81
2022/07/08 08:20:27;;;;;;;4.10;2.78;;;;;;;23.46;43.98;93824.75;4991687;28;20298;-82
2022/07/08 08:22:53;;;;;;;5.35;3.00;;;;;;;23.65;44.14;93831.69;4997040;28;20058;-81
2022/07/08 08:25:19;;;;;;;4.90;2.78;;;;;;;23.53;41.94;93830.94;4991945;28;20076;-81
2022/07/08 08:27:44;;;;;;;3.55;2.90;;;;;;;23.07;43.51;93800.47;4990555;28;20042;-83
2022/07/08 08:30:11;;;;;;;4.00;1.90;;;;;;;23.25;41.33;93814.75;4988607;28;20383;-81
2022/07/08 08:32:36;;;;;;;2.38;1.95;;;;;;;23.21;41.17;93824.06;4988349;28;20070;-82
2022/07/08 08:35:02;;;;;;;2.83;2.58;;;;;;;23.20;42.35;93819.81;4989124;28;20673;-83
2022/07/08 08:37:28;;;;;;;3.95;2.95;;;;;;;23.21;41.77;93818.63;4989644;28;20470;-83
2022/07/08 08:39:53;;;;;;;4.22;2.28;;;;;;;23.31;42.39;93818.59;4987160;28;20053;-83
2022/07/08 08:42:20;;;;;;;2.83;2.20;;;;;;;23.34;41.96;93806.97;4991329;28;20626;-83
2022/07/08 08:44:49;;;;;;;3.50;2.65;;;;;;;23.34;40.80;93811.59;5002346;28;20042;-83
2022/07/08 08:47:16;;;;;;;2.60;1.88;;;;;;;23.11;41.53;93793.09;4986991;28;20033;-82
2022/07/08 08:49:42;;;;;;;2.60;1.95;;;;;;;23.13;42.81;93807.81;4986864;28;20022;-81
2022/07/08 08:52:10;;;;;;;2.60;2.40;;;;;;;23.36;43.01;93812.00;4989227;28;20034;-80
2022/07/08 08:54:36;;;;;;;5.25;3.47;;;;;;;23.30;41.17;93805.44;4989609;28;20035;-79
2022/07/08 08:57:01;;;;;;;2.63;2.40;;;;;;;23.17;42.89;93796.97;4988724;28;20034;-79
2022/07/08 08:59:28;;;;;;;6.70;3.50;;;;;;;23.37;41.72;93799.94;4991153;28;20059;-80
2022/07/08 09:01:54;;;;;;;3.95;2.40;;;;;;;23.35;42.84;93794.94;4995429;28;20915;-79
2022/07/08 09:04:20;;;;;;;3.65;2.80;;;;;;;23.38;42.28;93772.44;4987292;28;20337;-79
2022/07/08 09:06:45;;;;;;;3.85;3.15;;;;;;;23.49;42.22;93777.84;4988572;28;20592;-78
2022/07/08 09:09:11;;;;;;;3.22;2.92;;;;;;;23.48;41.62;93784.41;4989673;28;20038;-79
2022/07/08 09:11:39;;;;;;;3.60;2.60;;;;;;;23.45;40.96;93771.63;4990072;28;20060;-79
2022/07/08 09:14:22;;;;;;;3.00;2.70;;;;;;;23.41;42.92;93790.66;4989202;28;20570;-78
2022/07/08 09:17:12;;;;;;;4.10;2.95;;;;;;;23.53;41.57;93786.72;4992351;28;20058;-79
2022/07/08 09:19:41;;;;;;;3.83;2.90;;;;;;;23.47;41.96;93766.56;4991868;28;20653;-80
2022/07/08 09:22:07;;;;;;;3.47;3.17;;;;;;;23.56;41.98;93764.25;4986874;28;20045;-79
2022/07/08 09:24:34;;;;;;;5.20;2.85;;;;;;;23.62;41.04;93773.50;4990659;28;20034;-79
2022/07/08 09:27:06;;;;;;;3.72;2.78;;;;;;;23.27;42.01;93763.56;4989835;28;20483;-81
2022/07/08 09:29:31;;;;;;;3.38;2.67;;;;;;;22.95;42.12;93750.13;4995565;28;20145;-80
2022/07/08 09:32:14;;;;;;;2.22;2.03;;;;;;;23.05;41.86;93754.75;4991277;28;20506;-81
2022/07/08 09:34:41;;;;;;;4.53;2.50;;;;;;;23.38;40.57;93777.84;4988280;28;20039;-81
2022/07/08 09:37:12;;;;;;;2.45;2.03;;;;;;;23.35;40.03;93758.88;4989580;28;20162;-81
2022/07/08 09:39:37;;;;;;;2.72;2.20;;;;;;;23.27;40.23;93751.97;4991695;28;20045;-81
2022/07/08 09:42:06;;;;;;;2.47;1.83;;;;;;;23.39;40.68;93754.22;4992653;28;20101;-80
2022/07/08 09:44:31;;;;;;;3.65;1.80;;;;;;;23.62;39.77;93761.88;4988583;28;20505;-81
2022/07/08 09:46:57;;;;;;;2.72;1.83;;;;;;;23.70;39.12;93753.31;4990168;28;20124;-81
2022/07/08 09:49:30;;;;;;;6.18;2.97;;;;;;;23.83;39.84;93748.94;4989462;28;20035;-81
2022/07/08 09:51:57;;;;;;;2.33;2.10;;;;;;;23.97;40.60;93765.13;4996089;28;20084;-81
2022/07/08 09:54:24;;;;;;;3.67;2.70;;;;;;;24.07;40.46;93760.78;4990205;28;20042;-81
2022/07/08 09:57:08;;;;;;;3.00;2.70;;;;;;;23.90;39.79;93735.31;4990025;28;20030;-82
2022/07/08 09:59:35;;;;;;;3.33;2.70;;;;;;;24.05;40.19;93740.66;4991393;28;20480;-81
2022/07/08 10:02:03;;;;;;;5.07;2.58;;;;;;;24.05;40.38;93754.22;4991240;28;20061;-81
2022/07/08 10:04:29;;;;;;;2.58;2.13;;;;;;;24.17;40.35;93748.31;4990104;28;20918;-81
2022/07/08 10:06:55;;;;;;;3.45;2.13;;;;;;;24.29;39.44;93753.28;4986921;28;20115;-80
2022/07/08 10:09:23;;;;;;;2.83;2.33;;;;;;;24.36;43.25;93737.66;4987852;28;20045;-82
2022/07/08 10:11:49;;;;;;;2.97;2.03;;;;;;;24.31;39.01;93731.91;4989976;28;20505;-82
2022/07/08 10:14:16;;;;;;;3.95;2.75;;;;;;;24.37;39.91;93725.63;4992206;28;20421;-80
2022/07/08 10:16:45;;;;;;;2.75;2.55;;;;;;;24.26;38.63;93691.56;4986792;28;20093;-83
2022/07/08 10:19:17;;;;;;;2.28;2.00;;;;;;;24.42;38.82;93713.56;4984527;28;20430;-83
2022/07/08 10:21:46;;;;;;;4.22;2.65;;;;;;;24.42;40.67;93702.69;4987474;28;20599;-81
2022/07/08 10:24:17;;;;;;;2.13;1.92;;;;;;;24.61;38.93;93714.91;4984785;28;20152;-84
2022/07/08 10:26:44;;;;;;;3.08;2.20;;;;;;;24.49;38.03;93704.56;4985511;28;20034;-83
2022/07/08 10:29:13;;;;;;;2.50;2.30;;;;;;;24.44;37.92;93706.53;4980625;28;20044;-81
2022/07/08 10:31:44;;;;;;;3.42;1.90;;;;;;;24.35;37.82;93708.16;4985880;28;20029;-84
2022/07/08 10:34:12;;;;;;;2.13;1.90;;;;;;;24.31;37.89;93694.63;4990753;28;20921;-81
2022/07/08 10:36:48;;;;;;;2.42;2.22;;;;;;;24.33;37.47;93696.94;4995636;28;20050;-81
2022/07/08 10:39:14;;;;;;;3.13;2.45;;;;;;;24.24;36.40;93688.50;4995111;28;20129;-82
2022/07/08 10:41:40;;;;;;;2.78;2.53;;;;;;;24.38;37.12;93699.22;4993307;28;20066;-82
2022/07/08 10:44:06;;;;;;;2.42;2.13;;;;;;;24.36;37.46;93712.44;4993788;28;20042;-81
2022/07/08 10:46:32;;;;;;;5.22;2.25;;;;;;;24.38;37.13;93713.59;4995675;28;20025;-81
2022/07/08 10:48:59;;;;;;;2.47;2.20;;;;;;;24.52;37.79;93712.69;4995093;28;20033;-81
2022/07/08 10:51:24;;;;;;;2.85;2.20;;;;;;;24.62;36.87;93724.63;4993810;28;20045;-80
2022/07/08 10:53:54;;;;;;;3.70;2.42;;;;;;;24.45;36.73;93690.97;4998344;28;20042;-80
2022/07/08 10:56:56;;;;;;;3.40;2.50;;;;;;;24.62;36.20;93719.94;4990300;28;20113;-82
2022/07/08 10:59:27;;;;;;;2.97;2.40;;;;;;;24.45;36.33;93712.72;4986474;28;20108;-83
2022/07/08 11:02:10;;;;;;;2.67;2.10;;;;;;;24.21;36.77;93662.09;4999690;28;20033;-82
2022/07/08 11:04:37;;;;;;;3.55;2.60;;;;;;;24.56;37.37;93702.53;4982122;28;20057;-82
2022/07/08 11:07:18;;;;;;;2.70;2.50;;;;;;;24.68;38.09;93699.31;4996638;28;20192;-82
2022/07/08 11:09:58;;;;;;;2.67;2.20;;;;;;;24.78;37.39;93687.53;4995879;28;20033;-84
2022/07/08 11:12:27;;;;;;;3.15;2.33;;;;;;;24.60;37.62;93676.06;4982393;28;20069;-82
2022/07/08 11:14:57;;;;;;;4.10;2.28;;;;;;;24.70;38.73;93691.50;4979771;28;20604;-82
2022/07/08 11:17:31;;;;;;;2.85;2.03;;;;;;;24.81;36.92;93684.03;4983246;28;20297;-83
2022/07/08 11:20:00;;;;;;;2.33;1.98;;;;;;;24.69;36.18;93694.63;4996773;28;20050;-83
2022/07/08 11:22:26;;;;;;;7.32;3.85;;;;;;;24.62;36.27;93687.31;4979572;28;20042;-83
2022/07/08 11:24:54;;;;;;;6.13;3.67;;;;;;;24.48;36.92;93670.41;4986353;28;20088;-82
2022/07/08 11:27:36;;;;;;;4.43;3.25;;;;;;;24.19;37.11;93638.09;4982065;28;20506;-82
2022/07/08 11:30:06;;;;;;;3.72;2.83;;;;;;;24.57;37.40;93659.81;4996468;28;20459;-83
2022/07/08 11:32:31;;;;;;;2.25;1.90;;;;;;;24.50;36.63;93619.88;4984397;28;20046;-82